createdAt,value
2018-07-03T04:00:56.187Z,3696.00
2018-07-03T04:01:55.992Z,3696.00
2018-07-03T04:03:48.699Z,3696.00
2018-07-03T04:04:48.561Z,3696.00
2018-07-03T04:06:41.243Z,3696.00
2018-07-03T04:07:41.147Z,3696.00
2018-07-03T04:09:33.859Z,3696.00
2018-07-03T04:10:33.732Z,3696.00
2018-07-03T04:12:26.415Z,3696.00
2018-07-03T04:13:26.302Z,3696.00
2018-07-03T04:15:19.024Z,3696.00
2018-07-03T04:16:18.883Z,3696.00
2018-07-03T04:18:11.566Z,3696.00
2018-07-03T04:19:11.475Z,3696.00
2018-07-03T04:21:04.161Z,3696.00
2018-07-03T04:22:04.033Z,3696.00
2018-07-03T04:23:56.709Z,3696.00
2018-07-03T04:24:56.605Z,3696.00
2018-07-03T04:26:49.331Z,3696.00
2018-07-03T04:27:49.184Z,3696.00
2018-07-03T04:29:41.856Z,3696.00
2018-07-03T04:30:41.758Z,3696.00
2018-07-03T04:32:34.524Z,3696.00
2018-07-03T04:33:34.370Z,3696.00
2018-07-03T04:35:27.048Z,3696.00
2018-07-03T04:36:26.941Z,3696.00
2018-07-03T04:38:19.637Z,3696.00
2018-07-03T04:39:19.508Z,3696.00
2018-07-03T04:41:12.338Z,3696.00
2018-07-03T04:42:12.081Z,3696.00
2018-07-03T04:44:04.795Z,3696.00
2018-07-03T04:45:04.659Z,3696.00
2018-07-03T04:46:57.348Z,3696.00
2018-07-03T04:47:57.236Z,3696.00
2018-07-03T04:49:49.936Z,3696.00
2018-07-03T04:50:49.829Z,3696.00
2018-07-03T04:52:42.537Z,3696.00
2018-07-03T04:53:42.433Z,3696.00
2018-07-03T04:55:35.129Z,3696.00
2018-07-03T04:56:34.998Z,3696.00
2018-07-03T04:58:28.166Z,3696.00
2018-07-03T04:59:28.062Z,3696.00
2018-07-03T05:01:20.756Z,3696.00
2018-07-03T05:02:20.641Z,3696.00
2018-07-03T05:04:13.312Z,3696.00
2018-07-03T05:05:13.213Z,3696.00
2018-07-03T05:07:05.913Z,3696.00
2018-07-03T05:08:05.785Z,3696.00
2018-07-03T05:09:58.471Z,3696.00
2018-07-03T05:10:58.362Z,3696.00
2018-07-03T05:12:51.096Z,3696.00
2018-07-03T05:13:50.974Z,3696.00
2018-07-03T05:15:43.652Z,3696.00
2018-07-03T05:16:43.557Z,3696.00
2018-07-03T05:18:36.245Z,3696.00
2018-07-03T05:19:36.129Z,3696.00
2018-07-03T05:21:28.807Z,3696.00
2018-07-03T05:22:28.704Z,3696.00
2018-07-03T05:24:21.409Z,3696.00
2018-07-03T05:25:21.283Z,3696.00
2018-07-03T05:27:13.967Z,3696.00
2018-07-03T05:28:13.860Z,3696.00
2018-07-03T05:30:06.559Z,3696.00
2018-07-03T05:31:06.432Z,3696.00
2018-07-03T05:32:59.121Z,3696.00
2018-07-03T05:33:59.011Z,3696.00
2018-07-03T05:35:51.711Z,3696.00
2018-07-03T05:36:51.588Z,3696.00
2018-07-03T05:38:44.327Z,3696.00
2018-07-03T05:39:44.168Z,3696.00
2018-07-03T05:41:36.850Z,3696.00
2018-07-03T05:42:36.742Z,3696.00
2018-07-03T05:44:29.442Z,3696.00
2018-07-03T05:45:29.452Z,3696.00
2018-07-03T05:47:22.001Z,3696.00
2018-07-03T05:48:21.896Z,3696.00
2018-07-03T05:50:14.598Z,3696.00
2018-07-03T05:51:14.478Z,3696.00
2018-07-03T05:53:07.152Z,3696.00
2018-07-03T05:54:07.056Z,3696.00
2018-07-03T05:55:59.769Z,3696.00
2018-07-03T05:56:59.628Z,3696.00
2018-07-03T05:58:52.307Z,3696.00
2018-07-03T05:59:52.208Z,3696.00
2018-07-03T06:01:44.914Z,3696.00
2018-07-03T06:02:44.790Z,3696.00
2018-07-03T06:04:37.468Z,3696.00
2018-07-03T06:05:37.363Z,3696.00
2018-07-03T06:07:30.065Z,3696.00
2018-07-03T06:08:29.968Z,3696.00
2018-07-03T06:10:22.807Z,3696.00
2018-07-03T06:11:22.528Z,3696.00
2018-07-03T06:13:15.227Z,3696.00
2018-07-03T06:14:15.109Z,3696.00
2018-07-03T06:16:07.806Z,3696.00
2018-07-03T06:17:07.688Z,3696.00
2018-07-03T06:19:00.381Z,3696.00
2018-07-03T06:20:00.267Z,3696.00
2018-07-03T06:21:52.952Z,3696.00
2018-07-03T06:22:52.928Z,3696.00
2018-07-03T06:24:45.577Z,62016.00
2018-07-03T06:25:45.456Z,62016.00
2018-07-03T06:27:38.166Z,69376.00
2018-07-03T06:28:38.053Z,69248.00
2018-07-03T06:30:30.769Z,73952.00
2018-07-03T06:31:30.669Z,70272.00
2018-07-03T06:33:23.402Z,64320.00
2018-07-03T06:34:23.283Z,75744.00
2018-07-03T06:36:16.239Z,70656.00
2018-07-03T06:37:15.904Z,72864.00
2018-07-03T06:39:08.805Z,78848.00
2018-07-03T06:40:08.522Z,81440.00
2018-07-03T06:42:01.240Z,83808.00
2018-07-03T06:43:01.152Z,76448.00
2018-07-03T06:44:53.899Z,72736.00
2018-07-03T06:45:53.781Z,70432.00
2018-07-03T06:47:46.505Z,79392.00
2018-07-03T06:48:46.406Z,75392.00
2018-07-03T06:50:39.144Z,70720.00
2018-07-03T06:51:39.052Z,78880.00
2018-07-03T06:53:31.750Z,83232.00
2018-07-03T06:54:31.881Z,79104.00
2018-07-03T06:56:24.418Z,85856.00
2018-07-03T06:57:24.307Z,81408.00
2018-07-03T06:59:17.029Z,80160.00
2018-07-03T07:00:16.938Z,79776.00
2018-07-03T07:02:09.673Z,85536.00
2018-07-03T07:03:09.573Z,82848.00
2018-07-03T07:05:02.291Z,80512.00
2018-07-03T07:06:02.213Z,79232.00
2018-07-03T07:07:54.944Z,76672.00
2018-07-03T07:08:54.901Z,81184.00
2018-07-03T07:10:47.562Z,91808.00
2018-07-03T07:11:47.473Z,88032.00
2018-07-03T07:13:40.221Z,88320.00
2018-07-03T07:14:40.117Z,85728.00
2018-07-03T07:16:32.833Z,89152.00
2018-07-03T07:17:32.755Z,85824.00
2018-07-03T07:19:25.488Z,83040.00
2018-07-03T07:20:25.385Z,94048.00
2018-07-03T07:22:18.114Z,92480.00
2018-07-03T07:23:18.041Z,93536.00
2018-07-03T07:25:10.765Z,89312.00
2018-07-03T07:26:10.665Z,92000.00
2018-07-03T07:28:03.389Z,108032.00
2018-07-03T07:29:03.305Z,89696.00
2018-07-03T07:30:56.101Z,80032.00
2018-07-03T07:31:56.004Z,80256.00
2018-07-03T07:33:48.726Z,84864.00
2018-07-03T07:34:48.651Z,85472.00
2018-07-03T07:36:41.390Z,82560.00
2018-07-03T07:37:41.292Z,80128.00
2018-07-03T07:39:34.022Z,76736.00
2018-07-03T07:40:33.939Z,80608.00
2018-07-03T07:42:26.691Z,79680.00
2018-07-03T07:43:26.594Z,81856.00
2018-07-03T07:45:19.315Z,80544.00
2018-07-03T07:46:19.233Z,82752.00
2018-07-03T07:48:11.987Z,87136.00
2018-07-03T07:49:11.880Z,86048.00
2018-07-03T07:51:04.667Z,87008.00
2018-07-03T07:52:04.587Z,91904.00
2018-07-03T07:53:57.335Z,85216.00
2018-07-03T07:54:57.271Z,88064.00
2018-07-03T07:56:49.965Z,82944.00
2018-07-03T07:57:49.908Z,79008.00
2018-07-03T07:59:42.626Z,83936.00
2018-07-03T08:00:42.526Z,83904.00
2018-07-03T08:02:35.263Z,84992.00
2018-07-03T08:03:35.178Z,81664.00
2018-07-03T08:05:27.938Z,77440.00
2018-07-03T08:06:27.837Z,79680.00
2018-07-03T08:08:20.568Z,89824.00
2018-07-03T08:09:20.485Z,97248.00
2018-07-03T08:11:13.245Z,88544.00
2018-07-03T08:12:13.144Z,87808.00
2018-07-03T08:14:05.864Z,81184.00
2018-07-03T08:15:05.786Z,81216.00
2018-07-03T08:16:58.529Z,87104.00
2018-07-03T08:17:58.430Z,85120.00
2018-07-03T08:19:51.180Z,81728.00
2018-07-03T08:20:51.083Z,85088.00
2018-07-03T08:22:43.944Z,80480.00
2018-07-03T08:23:43.729Z,87616.00
2018-07-03T08:25:36.497Z,93696.00
2018-07-03T08:26:36.412Z,91936.00
2018-07-03T08:28:29.111Z,82112.00
2018-07-03T08:29:29.036Z,87008.00
2018-07-03T08:31:21.849Z,84992.00
2018-07-03T08:32:21.777Z,88000.00
2018-07-03T08:34:14.466Z,80544.00
2018-07-03T08:35:14.375Z,84288.00
2018-07-03T08:37:07.127Z,86240.00
2018-07-03T08:38:07.031Z,83136.00
2018-07-03T08:39:59.744Z,74688.00
2018-07-03T08:40:59.665Z,81600.00
2018-07-03T08:42:52.409Z,84992.00
2018-07-03T08:43:52.307Z,86464.00
2018-07-03T08:45:45.030Z,88448.00
2018-07-03T08:46:44.987Z,86080.00
2018-07-03T08:48:37.687Z,83264.00
2018-07-03T08:49:37.593Z,77088.00
2018-07-03T08:51:30.321Z,75072.00
2018-07-03T08:52:30.242Z,52288.00
2018-07-03T08:54:22.982Z,13852.00
2018-07-03T08:55:22.884Z,10952.00
2018-07-03T08:57:15.635Z,8104.00
2018-07-03T08:58:15.539Z,7120.00
2018-07-03T09:00:08.238Z,6116.00
2018-07-03T09:01:08.154Z,5640.00
2018-07-03T09:03:00.901Z,5200.00
2018-07-03T09:04:00.788Z,5176.00
2018-07-03T09:05:53.499Z,5068.00
2018-07-03T09:06:53.412Z,5008.00
2018-07-03T09:08:46.136Z,5024.00
2018-07-03T09:09:46.030Z,5084.00
2018-07-03T09:11:38.743Z,5112.00
2018-07-03T09:12:38.650Z,5132.00
2018-07-03T09:14:31.375Z,5184.00
2018-07-03T09:15:31.270Z,5220.00
2018-07-03T09:17:23.998Z,5300.00
2018-07-03T09:18:23.871Z,5348.00
2018-07-03T09:20:16.592Z,5436.00
2018-07-03T09:21:16.482Z,5468.00
2018-07-03T09:23:09.179Z,5524.00
2018-07-03T09:24:09.085Z,5540.00
2018-07-03T09:26:01.809Z,5504.00
2018-07-03T09:27:01.690Z,5552.00
2018-07-03T09:28:54.394Z,5520.00
2018-07-03T09:29:54.291Z,5464.00
2018-07-03T09:31:47.009Z,5432.00
2018-07-03T09:32:46.896Z,5392.00
2018-07-03T09:34:39.595Z,5308.00
2018-07-03T09:35:39.495Z,5272.00
2018-07-03T09:37:32.219Z,5440.00
2018-07-03T09:38:32.102Z,5536.00
2018-07-03T09:40:24.798Z,5600.00
2018-07-03T09:41:24.703Z,5600.00
2018-07-03T09:43:17.437Z,5576.00
2018-07-03T09:44:17.317Z,5612.00
2018-07-03T09:46:10.012Z,5572.00
2018-07-03T09:47:09.910Z,5572.00
2018-07-03T09:49:02.646Z,5304.00
2018-07-03T09:50:02.526Z,5260.00
2018-07-03T09:51:55.217Z,5188.00
2018-07-03T09:52:55.118Z,5188.00
2018-07-03T09:54:47.932Z,4624.00
2018-07-03T09:55:47.753Z,4620.00
2018-07-03T09:57:40.469Z,4652.00
2018-07-03T09:58:40.333Z,4652.00
2018-07-03T10:00:33.050Z,4636.00
2018-07-03T10:01:32.942Z,4676.00
2018-07-03T10:03:25.631Z,4680.00
2018-07-03T10:04:25.555Z,4680.00
2018-07-03T10:06:18.275Z,4608.00
2018-07-03T10:07:18.137Z,4640.00
2018-07-03T10:09:10.839Z,4644.00
2018-07-03T10:10:10.741Z,4644.00
2018-07-03T10:12:03.462Z,4628.00
2018-07-03T10:13:03.416Z,4688.00
2018-07-03T10:14:56.046Z,4716.00
2018-07-03T10:15:55.948Z,4716.00
2018-07-03T10:17:48.663Z,4732.00
2018-07-03T10:18:48.564Z,4784.00
2018-07-03T10:20:41.253Z,4788.00
2018-07-03T10:21:41.155Z,4788.00
2018-07-03T10:23:33.868Z,4712.00
2018-07-03T10:24:33.757Z,4728.00
2018-07-03T10:26:26.466Z,4688.00
2018-07-03T10:27:26.352Z,4688.00
2018-07-03T10:29:19.060Z,4572.00
2018-07-03T10:30:18.965Z,4592.00
2018-07-03T10:32:11.681Z,4552.00
2018-07-03T10:33:11.561Z,4552.00
2018-07-03T10:35:04.259Z,4404.00
2018-07-03T10:36:04.182Z,4424.00
2018-07-03T10:37:56.872Z,4368.00
2018-07-03T10:38:56.762Z,4368.00
2018-07-03T10:40:49.460Z,4236.00
2018-07-03T10:41:49.359Z,4248.00
2018-07-03T10:43:42.129Z,4220.00
2018-07-03T10:44:42.019Z,4220.00
2018-07-03T10:46:34.760Z,4156.00
2018-07-03T10:47:34.615Z,4180.00
2018-07-03T10:49:27.349Z,4076.00
2018-07-03T10:50:27.255Z,4076.00
2018-07-03T10:52:19.971Z,4060.00
2018-07-03T10:53:19.863Z,4096.00
2018-07-03T10:55:12.557Z,4088.00
2018-07-03T10:56:12.458Z,4088.00
2018-07-03T10:58:05.176Z,4020.00
2018-07-03T10:59:05.067Z,4056.00
2018-07-03T11:00:57.906Z,4044.00
2018-07-03T11:01:57.660Z,4044.00
2018-07-03T11:03:50.405Z,3976.00
2018-07-03T11:04:50.261Z,4008.00
2018-07-03T11:06:42.986Z,4000.00
2018-07-03T11:07:42.864Z,4000.00
2018-07-03T11:09:35.559Z,3968.00
2018-07-03T11:10:35.467Z,4000.00
2018-07-03T11:12:28.188Z,3996.00
2018-07-03T11:13:28.064Z,3996.00
2018-07-03T11:15:20.765Z,3952.00
2018-07-03T11:16:20.671Z,3988.00
2018-07-03T11:18:13.395Z,3976.00
2018-07-03T11:19:13.272Z,3976.00
2018-07-03T11:21:06.121Z,3924.00
2018-07-03T11:22:05.868Z,3952.00
2018-07-03T11:23:58.593Z,3944.00
2018-07-03T11:24:58.491Z,3944.00
2018-07-03T11:26:51.314Z,3944.00
2018-07-03T11:27:51.080Z,3944.00
2018-07-03T11:29:43.790Z,3920.00
2018-07-03T11:30:43.681Z,3948.00
2018-07-03T11:32:36.374Z,3944.00
2018-07-03T11:33:36.287Z,3944.00
2018-07-03T11:35:29.033Z,3876.00
2018-07-03T11:36:28.890Z,3920.00
2018-07-03T11:38:21.591Z,3932.00
2018-07-03T11:39:21.488Z,3932.00
2018-07-03T11:41:14.205Z,3928.00
2018-07-03T11:42:14.093Z,3968.00
2018-07-03T11:44:06.792Z,3968.00
2018-07-03T11:45:06.687Z,3968.00
2018-07-03T11:46:59.405Z,3940.00
2018-07-03T11:47:59.292Z,3956.00
2018-07-03T11:49:51.984Z,3960.00
2018-07-03T11:50:51.895Z,3960.00
2018-07-03T11:52:44.598Z,3912.00
2018-07-03T11:53:44.483Z,3948.00
2018-07-03T11:55:37.189Z,3952.00
2018-07-03T11:56:37.093Z,3952.00
2018-07-03T11:58:29.807Z,3924.00
2018-07-03T11:59:29.693Z,3964.00
2018-07-03T12:01:22.403Z,3980.00
2018-07-03T12:02:22.290Z,3980.00
2018-07-03T12:04:15.008Z,3988.00
2018-07-03T12:05:14.891Z,4036.00
2018-07-03T12:07:07.590Z,4060.00
2018-07-03T12:08:07.493Z,4060.00
2018-07-03T12:10:00.209Z,4084.00
2018-07-03T12:11:00.094Z,4144.00
2018-07-03T12:12:52.790Z,4184.00
2018-07-03T12:13:52.698Z,4184.00
2018-07-03T12:15:45.408Z,4320.00
2018-07-03T12:16:45.296Z,4416.00
2018-07-03T12:18:38.010Z,4504.00
2018-07-03T12:19:37.977Z,4504.00
2018-07-03T12:21:30.599Z,4576.00
2018-07-03T12:22:30.505Z,4640.00
2018-07-03T12:24:23.227Z,4660.00
2018-07-03T12:25:23.115Z,4660.00
2018-07-03T12:27:15.809Z,4652.00
2018-07-03T12:28:15.713Z,4732.00
2018-07-03T12:30:08.420Z,4768.00
2018-07-03T12:31:08.303Z,4768.00
2018-07-03T12:33:01.156Z,4768.00
2018-07-03T12:34:01.051Z,4768.00
2018-07-03T12:35:53.621Z,4768.00
2018-07-03T12:36:53.503Z,4768.00
2018-07-03T12:38:46.216Z,4788.00
2018-07-03T12:39:46.104Z,4824.00
2018-07-03T12:41:38.806Z,4800.00
2018-07-03T12:42:38.703Z,4800.00
2018-07-03T12:44:31.422Z,4648.00
2018-07-03T12:45:31.308Z,4656.00
2018-07-03T12:47:24.000Z,4612.00
2018-07-03T12:48:23.904Z,4612.00
2018-07-03T12:50:16.621Z,4468.00
2018-07-03T12:51:16.508Z,4484.00
2018-07-03T12:53:09.206Z,4440.00
2018-07-03T12:54:09.111Z,4440.00
2018-07-03T12:56:01.875Z,4280.00
2018-07-03T12:57:01.709Z,4284.00
2018-07-03T12:58:54.403Z,4240.00
2018-07-03T12:59:54.318Z,4240.00
2018-07-03T13:01:47.026Z,4076.00
2018-07-03T13:02:46.913Z,4084.00
2018-07-03T13:04:39.604Z,4044.00
2018-07-03T13:05:39.508Z,4044.00
2018-07-03T13:07:32.217Z,3932.00
2018-07-03T13:08:32.105Z,3948.00
2018-07-03T13:10:24.813Z,3924.00
2018-07-03T13:11:24.706Z,3924.00
2018-07-03T13:13:17.425Z,3864.00
2018-07-03T13:14:17.303Z,3904.00
2018-07-03T13:16:10.008Z,3896.00
2018-07-03T13:17:09.909Z,3896.00
2018-07-03T13:19:02.632Z,3896.00
2018-07-03T13:20:02.520Z,3896.00
2018-07-03T13:21:55.265Z,3896.00
2018-07-03T13:22:55.136Z,3944.00
2018-07-03T13:24:47.839Z,3956.00
2018-07-03T13:25:47.740Z,3956.00
2018-07-03T13:27:40.468Z,3912.00
2018-07-03T13:28:40.351Z,3912.00
2018-07-03T13:30:33.193Z,3920.00
2018-07-03T13:31:32.992Z,3920.00
2018-07-03T13:33:25.679Z,3832.00
2018-07-03T13:34:25.569Z,3848.00
2018-07-03T13:36:18.257Z,3820.00
2018-07-03T13:37:18.157Z,3820.00
2018-07-03T13:39:10.884Z,3736.00
2018-07-03T13:40:10.769Z,3764.00
2018-07-03T13:42:03.521Z,3760.00
2018-07-03T13:43:03.373Z,3760.00
2018-07-03T13:44:56.098Z,3732.00
2018-07-03T13:45:55.981Z,3764.00
2018-07-03T13:47:48.682Z,3760.00
2018-07-03T13:48:48.614Z,3760.00
2018-07-03T13:50:41.301Z,3724.00
2018-07-03T13:51:41.228Z,3768.00
2018-07-03T13:53:33.903Z,3760.00
2018-07-03T13:54:33.791Z,3760.00
2018-07-03T13:56:26.504Z,3704.00
2018-07-03T13:57:26.401Z,3740.00
2018-07-03T13:59:19.095Z,3732.00
2018-07-03T14:00:19.003Z,3732.00
2018-07-03T14:02:11.795Z,3684.00
2018-07-03T14:03:11.627Z,3716.00
2018-07-03T14:05:04.336Z,3732.00
2018-07-03T14:06:04.225Z,3732.00
2018-07-03T14:07:56.951Z,3696.00
2018-07-03T14:08:56.890Z,3728.00
2018-07-03T14:10:49.636Z,3724.00
2018-07-03T14:11:49.544Z,3724.00
2018-07-03T14:13:42.263Z,3676.00
2018-07-03T14:14:42.148Z,3712.00
2018-07-03T14:16:34.841Z,3700.00
2018-07-03T14:17:34.741Z,3700.00
2018-07-03T14:19:27.462Z,3676.00
2018-07-03T14:20:27.348Z,3704.00
2018-07-03T14:22:20.042Z,3708.00
2018-07-03T14:23:19.951Z,3708.00
2018-07-03T14:25:12.662Z,3672.00
2018-07-03T14:26:12.580Z,3712.00
2018-07-03T14:28:05.269Z,3720.00
2018-07-03T14:29:05.147Z,3720.00
2018-07-03T14:30:57.883Z,3680.00
2018-07-03T14:31:57.755Z,3716.00
2018-07-03T14:33:50.477Z,3716.00
2018-07-03T14:34:50.359Z,3716.00
2018-07-03T14:36:43.196Z,3716.00
2018-07-03T14:37:42.954Z,3716.00
2018-07-03T14:39:35.677Z,3672.00
2018-07-03T14:40:35.553Z,3700.00
2018-07-03T14:42:28.257Z,3692.00
2018-07-03T14:43:28.163Z,3692.00
2018-07-03T14:45:20.887Z,3632.00
2018-07-03T14:46:20.768Z,3676.00
2018-07-03T14:48:13.457Z,3680.00
2018-07-03T14:49:13.360Z,3680.00
2018-07-03T14:51:06.085Z,3680.00
2018-07-03T14:52:05.966Z,3680.00
2018-07-03T14:53:58.662Z,3644.00
2018-07-03T14:54:58.569Z,3688.00
2018-07-03T14:56:51.290Z,3732.00
2018-07-03T14:57:51.170Z,3732.00
2018-07-03T14:59:43.871Z,3788.00
2018-07-03T15:00:43.778Z,3844.00
2018-07-03T15:02:36.482Z,3860.00
2018-07-03T15:03:36.368Z,3860.00
2018-07-03T15:05:29.072Z,3860.00
2018-07-03T15:06:28.977Z,3860.00
2018-07-03T15:08:21.689Z,3860.00
2018-07-03T15:09:21.600Z,3860.00
2018-07-03T15:11:14.308Z,3860.00
2018-07-03T15:12:14.184Z,3860.00
2018-07-03T15:14:06.874Z,3640.00
2018-07-03T15:15:06.769Z,3672.00
2018-07-03T15:16:59.497Z,3660.00
2018-07-03T15:17:59.386Z,3660.00
2018-07-03T15:19:52.068Z,3640.00
2018-07-03T15:20:51.972Z,3688.00
2018-07-03T15:22:44.692Z,3684.00
2018-07-03T15:23:44.570Z,3684.00
2018-07-03T15:25:37.259Z,3640.00
2018-07-03T15:26:37.171Z,3660.00
2018-07-03T15:28:29.899Z,3636.00
2018-07-03T15:29:29.771Z,3636.00
2018-07-03T15:31:22.489Z,3544.00
2018-07-03T15:32:22.368Z,3572.00
2018-07-03T15:34:15.096Z,3560.00
2018-07-03T15:35:14.974Z,3560.00
2018-07-03T15:37:07.664Z,3560.00
2018-07-03T15:38:07.570Z,3560.00
2018-07-03T15:40:00.277Z,3560.00
2018-07-03T15:41:00.187Z,3560.00
2018-07-03T15:42:52.860Z,3560.00
2018-07-03T15:43:52.770Z,3560.00
2018-07-03T15:45:45.495Z,3560.00
2018-07-03T15:46:45.391Z,3560.00
2018-07-03T15:48:38.075Z,3560.00
2018-07-03T15:49:37.984Z,3560.00
2018-07-03T15:51:30.714Z,3560.00
2018-07-03T15:52:30.577Z,3560.00
2018-07-03T15:54:23.278Z,3560.00
2018-07-03T15:55:23.182Z,3560.00
2018-07-03T15:57:15.894Z,3560.00
2018-07-03T15:58:15.783Z,3560.00
2018-07-03T16:00:08.479Z,3560.00
2018-07-03T16:01:08.384Z,3560.00
2018-07-03T16:03:01.099Z,3560.00
2018-07-03T16:04:00.978Z,3560.00
2018-07-03T16:05:53.681Z,3560.00
2018-07-03T16:06:53.580Z,3560.00
2018-07-03T16:08:46.294Z,3560.00
2018-07-03T16:09:46.190Z,3560.00
2018-07-03T16:11:38.873Z,3560.00
2018-07-03T16:12:38.783Z,3560.00
2018-07-03T16:14:31.500Z,3560.00
2018-07-03T16:15:31.376Z,3560.00
2018-07-03T16:17:24.065Z,3388.00
2018-07-03T16:18:23.981Z,3420.00
2018-07-03T16:20:16.692Z,3408.00
2018-07-03T16:21:16.572Z,3408.00
2018-07-03T16:23:09.276Z,3360.00
2018-07-03T16:24:09.175Z,3396.00
2018-07-03T16:26:01.879Z,3392.00
2018-07-03T16:27:01.769Z,3392.00
2018-07-03T16:28:54.466Z,3392.00
2018-07-03T16:29:54.366Z,3392.00
2018-07-03T16:31:47.093Z,3392.00
2018-07-03T16:32:46.973Z,3392.00
2018-07-03T16:34:39.663Z,3392.00
2018-07-03T16:35:39.569Z,3392.00
2018-07-03T16:37:32.307Z,3392.00
2018-07-03T16:38:32.191Z,3392.00
2018-07-03T16:40:24.907Z,3392.00
2018-07-03T16:41:24.801Z,3392.00
2018-07-03T16:43:17.489Z,3392.00
2018-07-03T16:44:17.387Z,3392.00
2018-07-03T16:46:10.106Z,3392.00
2018-07-03T16:47:09.991Z,3392.00
2018-07-03T16:49:02.705Z,3392.00
2018-07-03T16:50:02.608Z,3392.00
2018-07-03T16:51:55.330Z,3392.00
2018-07-03T16:52:55.223Z,3392.00
2018-07-03T16:54:47.914Z,3392.00
2018-07-03T16:55:47.818Z,3392.00
2018-07-03T16:57:40.548Z,3392.00
2018-07-03T16:58:40.433Z,3392.00
2018-07-03T17:00:33.118Z,3392.00
2018-07-03T17:01:33.020Z,3392.00
2018-07-03T17:03:26.243Z,3392.00
2018-07-03T17:04:26.122Z,3392.00
2018-07-03T17:06:18.816Z,3392.00
2018-07-03T17:07:18.722Z,3392.00
2018-07-03T17:09:11.446Z,3392.00
2018-07-03T17:10:11.328Z,3392.00
2018-07-03T17:12:04.021Z,3392.00
2018-07-03T17:13:03.921Z,3392.00
2018-07-03T17:14:56.646Z,3392.00
2018-07-03T17:15:56.531Z,3392.00
2018-07-03T17:17:49.238Z,3392.00
2018-07-03T17:18:49.142Z,3392.00
2018-07-03T17:20:41.880Z,3392.00
2018-07-03T17:21:41.743Z,3392.00
2018-07-03T17:23:34.467Z,3392.00
2018-07-03T17:24:34.359Z,3392.00
2018-07-03T17:26:27.090Z,3392.00
2018-07-03T17:27:26.966Z,3392.00
2018-07-03T17:29:19.656Z,3392.00
2018-07-03T17:30:19.578Z,3392.00
2018-07-03T17:32:12.296Z,3392.00
2018-07-03T17:33:12.165Z,3392.00
2018-07-03T17:35:04.872Z,3392.00
2018-07-03T17:36:04.772Z,3392.00
2018-07-03T17:37:57.496Z,3392.00
2018-07-03T17:38:57.380Z,3392.00
2018-07-03T17:40:50.091Z,3392.00
2018-07-03T17:41:49.990Z,3392.00
2018-07-03T17:43:42.691Z,3392.00
2018-07-03T17:44:42.577Z,3392.00
2018-07-03T17:46:35.274Z,3392.00
2018-07-03T17:47:35.210Z,3392.00
2018-07-03T17:49:27.903Z,3392.00
2018-07-03T17:50:27.788Z,3392.00
2018-07-03T17:52:20.510Z,3392.00
2018-07-03T17:53:20.472Z,3392.00
2018-07-03T17:55:13.075Z,3392.00
2018-07-03T17:56:12.981Z,3392.00
2018-07-03T17:58:05.708Z,3392.00
2018-07-03T17:59:05.625Z,3392.00
2018-07-03T18:00:58.280Z,3392.00
2018-07-03T18:01:58.183Z,3392.00
2018-07-03T18:03:50.896Z,3392.00
2018-07-03T18:04:50.813Z,3392.00
2018-07-03T18:06:43.624Z,3392.00
2018-07-03T18:07:43.379Z,3392.00
2018-07-03T18:09:36.094Z,3392.00
2018-07-03T18:10:35.976Z,3392.00
2018-07-03T18:12:28.671Z,3392.00
2018-07-03T18:13:28.575Z,3392.00
2018-07-03T18:15:21.342Z,3392.00
2018-07-03T18:16:21.192Z,3392.00
2018-07-03T18:18:13.886Z,3392.00
2018-07-03T18:19:13.775Z,3392.00
2018-07-03T18:21:06.625Z,3392.00
2018-07-03T18:22:06.385Z,3392.00
2018-07-03T18:23:59.098Z,3392.00
2018-07-03T18:24:58.997Z,3392.00
2018-07-03T18:26:51.717Z,3392.00
2018-07-03T18:27:51.609Z,3392.00
2018-07-03T18:29:44.403Z,3392.00
2018-07-03T18:30:44.210Z,3392.00
2018-07-03T18:32:36.924Z,3392.00
2018-07-03T18:33:36.808Z,3392.00
2018-07-03T18:35:29.638Z,3392.00
2018-07-03T18:36:29.408Z,3392.00
2018-07-03T18:38:22.108Z,3392.00
2018-07-03T18:39:22.003Z,3392.00
2018-07-03T18:41:14.714Z,3392.00
2018-07-03T18:42:14.604Z,3392.00
2018-07-03T18:44:07.298Z,3392.00
2018-07-03T18:45:07.196Z,3392.00
2018-07-03T18:46:59.916Z,3392.00
2018-07-03T18:47:59.796Z,3392.00
2018-07-03T18:49:52.483Z,3392.00
2018-07-03T18:50:52.380Z,3392.00
2018-07-03T18:52:45.102Z,3392.00
2018-07-03T18:53:44.984Z,3392.00
2018-07-03T18:55:37.678Z,3392.00
2018-07-03T18:56:37.579Z,3392.00
2018-07-03T18:58:30.299Z,3392.00
2018-07-03T18:59:30.203Z,3392.00
2018-07-03T19:01:22.870Z,3392.00
2018-07-03T19:02:22.780Z,3392.00
2018-07-03T19:04:15.493Z,3392.00
2018-07-03T19:05:15.382Z,3392.00
2018-07-03T19:07:08.069Z,3392.00
2018-07-03T19:08:07.974Z,3392.00
2018-07-03T19:10:00.703Z,3392.00
2018-07-03T19:11:00.579Z,3392.00
2018-07-03T19:12:53.275Z,3392.00
2018-07-03T19:13:53.180Z,3392.00
2018-07-03T19:15:45.894Z,3392.00
2018-07-03T19:16:45.780Z,3392.00
2018-07-03T19:18:38.464Z,3392.00
2018-07-03T19:19:38.366Z,3392.00
2018-07-03T19:21:31.082Z,3392.00
2018-07-03T19:22:30.973Z,3392.00
2018-07-03T19:24:23.654Z,3392.00
2018-07-03T19:25:23.556Z,3392.00
2018-07-03T19:27:16.278Z,3392.00
2018-07-03T19:28:16.166Z,3392.00
2018-07-03T19:30:08.849Z,3392.00
2018-07-03T19:31:08.752Z,3392.00
2018-07-03T19:33:01.470Z,3392.00
2018-07-03T19:34:01.340Z,3392.00
2018-07-03T19:35:54.036Z,3392.00
2018-07-03T19:36:53.936Z,3392.00
2018-07-03T19:38:46.684Z,3392.00
2018-07-03T19:39:47.008Z,3392.00
2018-07-03T19:41:39.230Z,3392.00
2018-07-03T19:42:39.134Z,3392.00
2018-07-03T19:44:31.847Z,3392.00
2018-07-03T19:45:31.729Z,3392.00
2018-07-03T19:47:24.413Z,3392.00
2018-07-03T19:48:24.316Z,3392.00
2018-07-03T19:50:17.036Z,3392.00
2018-07-03T19:51:16.906Z,3392.00
2018-07-03T19:53:09.590Z,3392.00
2018-07-03T19:54:09.494Z,3392.00
2018-07-03T19:56:02.361Z,3392.00
2018-07-03T19:57:02.078Z,3392.00
2018-07-03T19:58:54.777Z,3392.00
2018-07-03T19:59:54.677Z,3392.00
2018-07-03T20:01:47.527Z,3392.00
2018-07-03T20:02:47.262Z,3392.00
2018-07-03T20:04:39.957Z,3392.00
2018-07-03T20:05:39.856Z,3392.00
2018-07-03T20:07:32.604Z,3392.00
2018-07-03T20:08:32.437Z,3392.00
2018-07-03T20:10:25.125Z,3392.00
2018-07-03T20:11:25.027Z,3392.00
2018-07-03T20:13:17.741Z,3392.00
2018-07-03T20:14:17.632Z,3392.00
2018-07-03T20:16:10.317Z,3392.00
2018-07-03T20:17:10.227Z,3392.00
2018-07-03T20:19:02.975Z,3392.00
2018-07-03T20:20:03.522Z,3392.00
2018-07-03T20:21:56.529Z,3392.00
2018-07-03T20:22:56.009Z,3392.00
2018-07-03T20:24:48.749Z,3392.00
2018-07-03T20:25:48.594Z,3392.00
2018-07-03T20:27:41.283Z,3392.00
2018-07-03T20:28:41.177Z,3392.00
2018-07-03T20:30:33.884Z,3392.00
2018-07-03T20:31:33.765Z,3392.00
2018-07-03T20:33:26.455Z,3392.00
2018-07-03T20:34:26.377Z,3392.00
2018-07-03T20:36:19.068Z,3392.00
2018-07-03T20:37:18.940Z,3392.00
2018-07-03T20:39:11.630Z,3392.00
2018-07-03T20:40:11.751Z,3392.00
2018-07-03T20:42:04.299Z,3392.00
2018-07-03T20:43:04.432Z,3392.00
2018-07-03T20:44:57.245Z,3392.00
2018-07-03T20:45:56.746Z,3392.00
2018-07-03T20:47:49.448Z,3392.00
2018-07-03T20:48:49.316Z,3392.00
2018-07-03T20:50:42.013Z,3392.00
2018-07-03T20:51:41.909Z,3392.00
2018-07-03T20:53:34.773Z,3392.00
2018-07-03T20:54:34.528Z,3392.00
2018-07-03T20:56:27.222Z,3392.00
2018-07-03T20:57:27.124Z,3392.00
2018-07-03T20:59:19.842Z,3392.00
2018-07-03T21:00:19.717Z,3392.00
2018-07-03T21:02:12.408Z,3392.00
2018-07-03T21:03:12.311Z,3392.00
2018-07-03T21:05:05.018Z,3392.00
2018-07-03T21:06:04.911Z,3392.00
2018-07-03T21:07:57.585Z,3392.00
2018-07-03T21:08:57.490Z,3392.00
2018-07-03T21:10:50.208Z,3392.00
2018-07-03T21:11:50.304Z,3392.00
2018-07-03T21:13:42.877Z,3392.00
2018-07-03T21:14:42.664Z,3392.00
2018-07-03T21:16:35.877Z,3392.00
2018-07-03T21:17:35.457Z,3392.00
2018-07-03T21:19:28.094Z,3392.00